createdAt,value
2023-04-16T00:00:58.027Z,7.80
2023-04-16T00:06:10.929Z,10.60
2023-04-16T00:11:14.131Z,12.70
2023-04-16T00:16:17.206Z,12.70
2023-04-16T00:21:19.746Z,23.20
2023-04-16T00:26:22.795Z,22.00
2023-04-16T00:31:34.142Z,23.40
2023-04-16T00:36:37.629Z,21.50
2023-04-16T00:41:41.549Z,14.60
2023-04-16T00:46:46.318Z,13.90
2023-04-16T00:51:48.812Z,17.60
2023-04-16T00:56:52.544Z,15.90
2023-04-16T01:01:55.759Z,11.80
2023-04-16T01:06:59.589Z,12.80
2023-04-16T01:12:02.499Z,12.90
2023-04-16T01:17:06.533Z,13.90
2023-04-16T01:22:09.865Z,9.30
2023-04-16T01:27:13.613Z,14.10
2023-04-16T01:32:17.488Z,10.00
2023-04-16T01:37:21.056Z,11.70
2023-04-16T01:42:23.102Z,16.20
2023-04-16T01:47:26.669Z,10.20
2023-04-16T01:52:29.492Z,22.80
2023-04-16T01:57:32.429Z,12.80
2023-04-16T02:02:35.972Z,9.90
2023-04-16T02:07:39.950Z,12.20
2023-04-16T02:12:43.733Z,9.00
2023-04-16T02:17:48.576Z,12.90
2023-04-16T02:22:51.222Z,12.10
2023-04-16T02:27:55.232Z,10.90
2023-04-16T02:32:58.143Z,9.30
2023-04-16T02:38:04.823Z,9.40
2023-04-16T02:43:07.369Z,8.20
2023-04-16T02:48:10.260Z,9.20
2023-04-16T02:53:14.928Z,8.20
2023-04-16T02:58:17.880Z,6.30
2023-04-16T03:03:21.688Z,7.10
2023-04-16T03:08:24.770Z,8.60
2023-04-16T03:13:27.773Z,9.30
2023-04-16T03:18:30.668Z,10.20
2023-04-16T03:23:35.877Z,12.50
2023-04-16T03:28:39.831Z,10.50
2023-04-16T03:33:43.380Z,12.60
2023-04-16T03:38:47.226Z,13.30
2023-04-16T03:43:51.699Z,13.00
2023-04-16T03:48:55.752Z,19.40
2023-04-16T03:53:59.617Z,12.90
2023-04-16T03:59:03.056Z,19.00
2023-04-16T04:04:10.175Z,22.00
2023-04-16T04:14:16.301Z,20.90
2023-04-16T04:19:19.522Z,18.50
2023-04-16T04:24:23.599Z,17.60
2023-04-16T04:29:27.153Z,21.00
2023-04-16T04:34:31.318Z,17.80
2023-04-16T04:39:34.397Z,17.30
2023-04-16T04:44:36.599Z,19.40
2023-04-16T04:49:40.492Z,27.40
2023-04-16T04:54:45.480Z,26.20
2023-04-16T04:59:49.836Z,20.40
2023-04-16T05:04:53.388Z,26.30
2023-04-16T05:09:57.945Z,28.30
2023-04-16T05:15:01.668Z,21.00
2023-04-16T05:20:06.179Z,26.90
2023-04-16T05:25:09.130Z,24.40
2023-04-16T05:30:12.637Z,29.20
2023-04-16T05:35:17.312Z,19.00
2023-04-16T05:40:20.500Z,24.60
2023-04-16T05:45:24.058Z,29.80
2023-04-16T05:50:28.092Z,21.20
2023-04-16T05:55:30.723Z,27.40
2023-04-16T06:00:33.857Z,21.40
2023-04-16T06:05:36.929Z,26.90
2023-04-16T06:10:40.650Z,23.10
2023-04-16T06:15:44.745Z,29.60
2023-04-16T06:20:50.443Z,31.80
2023-04-16T06:25:54.493Z,29.90
2023-04-16T06:31:00.274Z,26.90
2023-04-16T06:36:03.166Z,20.80
2023-04-16T06:41:06.264Z,27.10
2023-04-16T06:46:09.955Z,23.90
2023-04-16T06:51:13.381Z,33.00
2023-04-16T06:56:16.734Z,28.10
2023-04-16T07:01:23.012Z,24.40
2023-04-16T07:06:28.332Z,29.10
2023-04-16T07:11:33.968Z,30.60
2023-04-16T07:16:39.046Z,33.80
2023-04-16T07:21:43.711Z,25.60
2023-04-16T07:26:46.566Z,32.10
2023-04-16T07:31:49.258Z,29.20
2023-04-16T07:36:52.098Z,29.40
2023-04-16T07:41:55.068Z,27.80
2023-04-16T07:46:57.284Z,29.80
2023-04-16T07:52:00.586Z,29.50
2023-04-16T07:57:02.875Z,25.10
2023-04-16T08:02:06.160Z,31.40
2023-04-16T08:07:09.836Z,31.90
2023-04-16T08:12:12.785Z,29.60
2023-04-16T08:17:16.528Z,21.50
2023-04-16T08:22:25.747Z,24.40
2023-04-16T08:27:29.015Z,19.40
2023-04-16T08:32:32.912Z,21.50
2023-04-16T08:37:37.716Z,22.50
2023-04-16T08:42:49.274Z,20.30
2023-04-16T08:47:53.175Z,19.60
2023-04-16T08:53:06.704Z,23.30
2023-04-16T08:58:21.932Z,25.20
2023-04-16T09:03:24.363Z,18.90
2023-04-16T09:08:28.161Z,25.10
2023-04-16T09:13:31.835Z,19.50
2023-04-16T09:18:34.863Z,19.90
2023-04-16T09:23:39.719Z,17.10
2023-04-16T09:28:46.390Z,22.50
2023-04-16T09:34:09.538Z,17.60
2023-04-16T09:39:20.209Z,21.80
2023-04-16T09:44:38.734Z,17.40
2023-04-16T09:49:43.949Z,19.10
2023-04-16T09:54:55.061Z,26.60
2023-04-16T10:00:07.476Z,18.00
2023-04-16T10:05:16.889Z,15.00
2023-04-16T10:10:20.301Z,16.10
2023-04-16T10:15:23.150Z,16.90
2023-04-16T10:20:27.504Z,12.20
2023-04-16T10:25:30.759Z,17.70
2023-04-16T10:30:37.267Z,15.70
2023-04-16T10:35:40.508Z,16.80
2023-04-16T10:40:46.225Z,17.80
2023-04-16T10:45:49.588Z,15.40
2023-04-16T10:51:00.603Z,16.60
2023-04-16T10:56:05.553Z,17.00
2023-04-16T11:01:14.041Z,14.60
2023-04-16T11:06:24.183Z,16.80
2023-04-16T11:11:39.614Z,15.90
2023-04-16T11:16:43.307Z,14.30
2023-04-16T11:21:47.700Z,11.90
2023-04-16T11:26:54.620Z,18.00
2023-04-16T11:31:58.819Z,13.40
2023-04-16T11:37:01.599Z,13.00
2023-04-16T11:42:04.604Z,12.70
2023-04-16T11:47:07.820Z,12.90
2023-04-16T11:52:10.893Z,11.90
2023-04-16T11:57:15.444Z,15.40
2023-04-16T12:02:18.830Z,11.80
2023-04-16T12:07:22.699Z,10.70
2023-04-16T12:12:27.900Z,11.50
2023-04-16T12:17:32.585Z,12.20
2023-04-16T12:22:37.515Z,10.50
2023-04-16T12:27:55.852Z,13.10
2023-04-16T12:33:16.535Z,11.50
2023-04-16T12:38:19.056Z,11.40
2023-04-16T12:43:21.129Z,9.10
2023-04-16T12:48:23.803Z,10.50
2023-04-16T12:53:26.924Z,10.50
2023-04-16T12:58:30.341Z,12.00
2023-04-16T13:03:32.672Z,12.70
2023-04-16T13:49:10.253Z,16.70
2023-04-16T14:13:34.724Z,18.20
2023-04-16T14:18:42.345Z,17.80
2023-04-16T14:23:47.189Z,15.10
2023-04-16T14:28:50.595Z,18.60
2023-04-16T14:33:53.086Z,17.90
2023-04-16T14:38:56.058Z,13.20
2023-04-16T14:44:00.403Z,25.20
2023-04-16T14:49:02.796Z,16.60
2023-04-16T14:54:06.641Z,20.10
2023-04-16T14:59:09.062Z,17.70
2023-04-16T15:04:12.402Z,17.40
2023-04-16T15:09:15.427Z,16.40
2023-04-16T15:14:18.988Z,15.10
2023-04-16T15:19:22.429Z,14.90
2023-04-16T15:24:26.042Z,16.00
2023-04-16T15:29:28.797Z,16.90
2023-04-16T15:34:31.277Z,15.10
2023-04-16T15:39:35.325Z,16.60
2023-04-16T15:44:42.209Z,15.90
2023-04-16T15:49:45.220Z,9.40
2023-04-16T15:54:49.355Z,9.60
2023-04-16T16:00:05.913Z,9.00
2023-04-16T16:05:14.248Z,10.90
2023-04-16T16:10:16.840Z,9.10
2023-04-16T16:15:22.016Z,12.30
2023-04-16T16:20:25.601Z,10.60
2023-04-16T16:25:30.056Z,11.80
2023-04-16T16:30:34.923Z,9.70
2023-04-16T16:35:38.738Z,12.80
2023-04-16T16:40:43.183Z,11.10
2023-04-16T16:45:47.081Z,11.10
2023-04-16T16:50:50.123Z,11.60
2023-04-16T16:55:54.048Z,10.00
2023-04-16T17:00:56.792Z,10.10
2023-04-16T17:06:03.572Z,10.70
2023-04-16T17:11:06.903Z,9.90
2023-04-16T17:16:10.734Z,12.90
2023-04-16T17:21:16.538Z,10.60
2023-04-16T17:26:20.633Z,15.10
2023-04-16T17:31:26.233Z,13.40
2023-04-16T17:36:35.130Z,16.70
2023-04-16T17:41:39.236Z,16.60
2023-04-16T17:46:44.053Z,17.50
2023-04-16T17:51:54.968Z,16.90
2023-04-16T17:57:03.504Z,24.70
2023-04-16T18:02:08.597Z,17.20
2023-04-16T18:07:16.113Z,23.60
2023-04-16T18:12:23.291Z,17.90
2023-04-16T18:17:25.833Z,21.70
2023-04-16T18:22:36.432Z,22.60
2023-04-16T18:27:40.980Z,24.90
2023-04-16T18:33:10.082Z,21.90
2023-04-16T18:38:18.480Z,17.90
2023-04-16T18:43:23.973Z,18.50
2023-04-16T18:48:28.182Z,19.30
2023-04-16T18:53:31.347Z,19.10
2023-04-16T18:58:34.219Z,23.00
2023-04-16T19:03:37.784Z,25.00
2023-04-16T19:08:40.526Z,21.00
2023-04-16T19:13:43.738Z,23.40
2023-04-16T19:18:47.279Z,34.70
2023-04-16T19:23:51.448Z,53.90
2023-04-16T19:28:55.071Z,65.90
2023-04-16T19:33:58.479Z,115.60
2023-04-16T19:39:00.737Z,99.20
2023-04-16T19:44:04.062Z,60.10
2023-04-16T19:49:06.795Z,48.30
2023-04-16T19:54:09.217Z,41.80
2023-04-16T19:59:11.600Z,40.70
2023-04-16T20:04:15.926Z,40.80
2023-04-16T20:09:20.009Z,42.40
2023-04-16T20:14:23.164Z,27.20
2023-04-16T20:19:29.944Z,56.10
2023-04-16T20:24:33.873Z,50.10
2023-04-16T20:29:36.906Z,52.00
2023-04-16T20:34:40.751Z,40.90
2023-04-16T20:39:46.894Z,28.60
2023-04-16T20:44:50.412Z,27.10
2023-04-16T20:49:54.655Z,25.90
2023-04-16T20:54:58.995Z,23.20
2023-04-16T21:00:04.123Z,26.10
2023-04-16T21:05:14.382Z,23.70
2023-04-16T21:10:19.780Z,24.50
2023-04-16T21:15:23.947Z,24.40
2023-04-16T21:20:30.545Z,26.00
2023-04-16T21:25:34.538Z,17.70
2023-04-16T21:30:36.640Z,22.10
2023-04-16T21:35:39.332Z,19.30
2023-04-16T21:40:42.500Z,16.00
2023-04-16T21:45:44.973Z,21.50
2023-04-16T21:50:47.945Z,20.10
2023-04-16T21:55:50.193Z,21.00
2023-04-16T22:00:54.260Z,21.00
2023-04-16T22:06:01.059Z,26.60
2023-04-16T22:11:04.255Z,24.00
2023-04-16T22:16:08.821Z,27.30
2023-04-16T22:21:14.441Z,27.70
2023-04-16T22:26:17.383Z,27.30
2023-04-16T22:31:20.262Z,23.80
2023-04-16T22:36:24.401Z,28.40
2023-04-16T22:41:28.019Z,30.30
2023-04-16T22:46:31.068Z,29.50
2023-04-16T22:51:35.359Z,24.70
2023-04-16T22:56:39.072Z,26.90
2023-04-16T23:01:42.486Z,29.30
2023-04-16T23:06:46.318Z,27.10
2023-04-16T23:11:51.177Z,24.00
2023-04-16T23:16:54.351Z,25.40
2023-04-16T23:22:01.547Z,23.80
2023-04-16T23:27:04.853Z,27.80
2023-04-16T23:32:08.136Z,29.40
2023-04-16T23:37:11.022Z,30.30
2023-04-16T23:42:14.274Z,23.40
2023-04-16T23:47:16.205Z,28.70
2023-04-16T23:52:18.891Z,28.10
2023-04-16T23:57:22.949Z,23.40
